Terminal Aerodrome Forecast
Issued by NWS

Current Version | Previous Version | Text Only | Print | Product List | Glossary Off
Versions: 1 2 3 4 5 6 7 8 9 10 11 12 13 14 15 16 17 18 19 20 21 22 23 24 25 26 27 28 29 30 31 32 33 34

178
FTUS41 KPBZ 290700 AAA
TAFHLG
TAF AMD
KHLG 290700Z 2907/3006 00000KT 1/4SM FG VV002
     FM290800 00000KT 1/2SM FG VV003
     FM291400 28004KT P6SM BKN015
     FM291600 31004KT P6SM BKN025
     FM291800 32005KT P6SM VCSH BKN050=

USA.gov is the U.S. government's official web portal to all federal, state and local government web resources and services.